createdAt,value
2022-11-19T00:03:30.500Z,47.71
2022-11-19T00:06:11.546Z,47.27
2022-11-19T00:12:01.505Z,47.67
2022-11-19T00:20:18.939Z,47.53
2022-11-19T00:26:11.948Z,47.86
2022-11-19T00:37:26.623Z,48.12
2022-11-19T00:40:05.813Z,48.15
2022-11-19T00:51:42.322Z,48.45
2022-11-19T00:54:13.466Z,48.37
2022-11-19T00:56:42.908Z,48.19
2022-11-19T00:59:12.736Z,48.23
2022-11-19T01:01:42.428Z,48.43
2022-11-19T01:04:11.382Z,48.25
2022-11-19T01:06:49.240Z,48.67
2022-11-19T01:09:27.912Z,48.35
2022-11-19T01:11:58.605Z,48.10
2022-11-19T01:14:35.405Z,48.46
2022-11-19T01:17:09.190Z,48.63
2022-11-19T01:31:12.011Z,48.64
2022-11-19T01:39:44.917Z,48.54
2022-11-19T01:42:50.573Z,48.61
2022-11-19T01:45:32.091Z,48.51
2022-11-19T01:48:08.568Z,48.75
2022-11-19T01:50:57.224Z,48.80
2022-11-19T01:53:31.440Z,48.72
2022-11-19T01:56:19.877Z,48.43
2022-11-19T01:59:06.089Z,48.83
2022-11-19T02:01:51.059Z,48.63
2022-11-19T02:04:25.325Z,48.49
2022-11-19T02:06:54.724Z,48.19
2022-11-19T02:09:46.172Z,48.07
2022-11-19T02:12:27.152Z,48.47
2022-11-19T02:15:23.187Z,48.41
2022-11-19T02:18:08.419Z,48.48
2022-11-19T02:20:50.636Z,48.22
2022-11-19T02:24:12.079Z,48.37
2022-11-19T02:27:20.567Z,48.75
2022-11-19T02:30:12.031Z,48.89
2022-11-19T02:32:58.615Z,48.66
2022-11-19T02:35:43.500Z,48.62
2022-11-19T02:38:19.394Z,48.56
2022-11-19T02:40:52.102Z,48.45
2022-11-19T02:43:24.457Z,48.84
2022-11-19T02:46:02.343Z,48.53
2022-11-19T02:48:34.006Z,49.02
2022-11-19T02:51:04.900Z,48.67
2022-11-19T02:53:34.657Z,49.35
2022-11-19T02:56:13.892Z,49.10
2022-11-19T02:59:05.253Z,49.32
2022-11-19T03:01:56.048Z,49.38
2022-11-19T03:04:32.744Z,49.24
2022-11-19T03:07:05.984Z,49.45
2022-11-19T03:09:36.970Z,49.47
2022-11-19T03:12:13.069Z,49.42
2022-11-19T03:15:07.676Z,49.09
2022-11-19T03:17:51.675Z,49.10
2022-11-19T03:20:26.812Z,49.19
2022-11-19T03:23:00.863Z,49.28
2022-11-19T03:25:36.408Z,49.21
2022-11-19T03:28:11.482Z,49.30
2022-11-19T03:30:42.872Z,49.12
2022-11-19T03:33:18.656Z,49.38
2022-11-19T03:35:51.313Z,49.17
2022-11-19T03:38:31.070Z,49.88
2022-11-19T03:41:00.168Z,49.64
2022-11-19T03:43:30.653Z,49.52
2022-11-19T03:46:02.823Z,49.68
2022-11-19T03:48:32.985Z,49.59
2022-11-19T03:51:09.220Z,49.80
2022-11-19T03:53:37.351Z,50.02
2022-11-19T03:56:08.672Z,49.79
2022-11-19T03:58:40.500Z,49.89
2022-11-19T04:01:09.729Z,50.14
2022-11-19T04:03:39.509Z,49.87
2022-11-19T04:06:08.704Z,49.81
2022-11-19T04:08:36.741Z,49.62
2022-11-19T04:13:31.696Z,49.77
2022-11-19T04:15:59.673Z,50.07
2022-11-19T04:18:27.635Z,49.91
2022-11-19T04:20:57.140Z,50.01
2022-11-19T04:23:25.201Z,49.83
2022-11-19T04:25:53.427Z,50.07
2022-11-19T04:28:21.508Z,50.35
2022-11-19T04:30:49.556Z,50.45
2022-11-19T04:33:17.630Z,50.34
2022-11-19T04:35:46.275Z,50.16
2022-11-19T04:38:15.874Z,50.46
2022-11-19T04:40:43.995Z,50.58
2022-11-19T04:43:12.028Z,50.35
2022-11-19T04:45:40.154Z,50.29
2022-11-19T04:48:08.473Z,50.25
2022-11-19T04:50:36.599Z,50.19
2022-11-19T04:53:04.686Z,50.21
2022-11-19T04:55:34.216Z,50.50
2022-11-19T04:58:02.637Z,50.68
2022-11-19T05:00:31.099Z,50.48
2022-11-19T05:02:59.453Z,50.70
2022-11-19T05:05:27.764Z,50.47
2022-11-19T05:07:58.030Z,50.75
2022-11-19T05:10:26.381Z,50.66
2022-11-19T05:12:55.980Z,50.82
2022-11-19T05:15:24.061Z,50.47
2022-11-19T05:17:52.129Z,50.35
2022-11-19T05:20:20.507Z,50.49
2022-11-19T05:22:48.541Z,50.62
2022-11-19T05:25:16.709Z,50.46
2022-11-19T05:27:44.779Z,50.54
2022-11-19T05:30:14.784Z,50.80
2022-11-19T05:32:43.217Z,50.70
2022-11-19T05:35:12.396Z,50.83
2022-11-19T05:37:40.704Z,50.49
2022-11-19T05:40:09.930Z,50.96
2022-11-19T05:42:38.137Z,50.88
2022-11-19T05:45:07.466Z,50.95
2022-11-19T05:47:37.323Z,51.09
2022-11-19T05:50:06.395Z,50.95
2022-11-19T05:52:34.590Z,50.93
2022-11-19T05:55:02.958Z,51.20
2022-11-19T05:57:31.087Z,50.85
2022-11-19T05:59:59.326Z,51.34
2022-11-19T06:02:27.646Z,51.32
2022-11-19T06:04:57.146Z,51.16
2022-11-19T06:07:25.195Z,50.82
2022-11-19T06:09:53.384Z,50.98
2022-11-19T06:12:21.499Z,50.72
2022-11-19T06:14:49.468Z,50.77
2022-11-19T06:17:17.479Z,50.71
2022-11-19T06:19:45.623Z,50.89
2022-11-19T06:22:15.099Z,50.80
2022-11-19T06:24:43.276Z,51.05
2022-11-19T06:27:11.370Z,51.07
2022-11-19T06:29:39.415Z,50.91
2022-11-19T06:32:07.407Z,50.88
2022-11-19T06:34:35.487Z,51.14
2022-11-19T06:37:03.670Z,51.33
2022-11-19T06:39:33.876Z,51.21
2022-11-19T06:42:22.984Z,51.27
2022-11-19T06:44:51.114Z,51.42
2022-11-19T06:47:19.391Z,51.41
2022-11-19T06:49:47.612Z,51.47
2022-11-19T06:52:15.725Z,51.59
2022-11-19T06:54:45.418Z,51.38
2022-11-19T06:57:13.592Z,51.46
2022-11-19T06:59:42.174Z,51.47
2022-11-19T07:02:12.687Z,51.37
2022-11-19T07:04:40.849Z,51.35
2022-11-19T07:07:10.880Z,51.58
2022-11-19T07:09:39.967Z,51.32
2022-11-19T07:12:09.802Z,51.61
2022-11-19T07:14:37.848Z,51.56
2022-11-19T07:17:06.579Z,51.81
2022-11-19T07:19:34.590Z,51.80
2022-11-19T07:22:02.670Z,51.84
2022-11-19T07:24:30.790Z,51.45
2022-11-19T07:26:59.398Z,51.39
2022-11-19T07:29:28.793Z,51.35
2022-11-19T07:31:57.409Z,51.61
2022-11-19T07:34:25.433Z,51.32
2022-11-19T07:36:54.155Z,51.52
2022-11-19T07:39:22.713Z,51.47
2022-11-19T07:42:08.656Z,51.57
2022-11-19T07:44:38.356Z,51.76
2022-11-19T07:47:07.994Z,51.79
2022-11-19T07:49:36.054Z,51.73
2022-11-19T07:52:04.347Z,51.89
2022-11-19T07:54:32.512Z,51.86
2022-11-19T07:57:00.830Z,51.67
2022-11-19T07:59:33.609Z,52.05
2022-11-19T08:02:03.208Z,52.01
2022-11-19T08:04:31.357Z,51.77
2022-11-19T08:06:59.475Z,51.86
2022-11-19T08:09:28.980Z,51.63
2022-11-19T08:11:57.133Z,52.08
2022-11-19T08:14:25.297Z,52.17
2022-11-19T08:17:10.626Z,51.81
2022-11-19T08:19:40.194Z,51.88
2022-11-19T08:22:08.190Z,51.95
2022-11-19T08:24:36.295Z,52.19
2022-11-19T08:27:05.639Z,52.09
2022-11-19T08:29:33.896Z,51.88
2022-11-19T08:32:02.004Z,52.45
2022-11-19T08:34:32.240Z,52.33
2022-11-19T08:37:01.829Z,52.54
2022-11-19T08:39:30.863Z,52.45
2022-11-19T08:42:16.364Z,52.55
2022-11-19T08:44:44.447Z,52.28
2022-11-19T08:47:12.516Z,52.62
2022-11-19T08:49:40.585Z,52.74
2022-11-19T08:52:10.158Z,52.57
2022-11-19T08:54:38.195Z,52.61
2022-11-19T08:57:06.693Z,52.95
2022-11-19T08:59:34.713Z,52.69
2022-11-19T09:02:04.518Z,52.86
2022-11-19T09:04:32.977Z,52.52
2022-11-19T09:07:01.488Z,52.68
2022-11-19T09:09:31.608Z,52.27
2022-11-19T09:11:59.671Z,52.29
2022-11-19T09:14:27.851Z,52.35
2022-11-19T09:16:55.932Z,51.95
2022-11-19T09:19:24.007Z,52.00
2022-11-19T09:21:52.002Z,51.99
2022-11-19T09:24:20.359Z,52.18
2022-11-19T09:26:53.329Z,52.43
2022-11-19T09:29:21.882Z,52.20
2022-11-19T09:31:49.884Z,52.30
2022-11-19T09:34:18.207Z,52.57
2022-11-19T09:36:47.146Z,52.40
2022-11-19T09:39:15.173Z,52.16
2022-11-19T09:41:53.487Z,52.47
2022-11-19T09:44:42.349Z,52.43
2022-11-19T09:47:24.199Z,52.39
2022-11-19T09:50:04.041Z,52.30
2022-11-19T09:52:34.642Z,52.26
2022-11-19T09:55:03.763Z,52.54
2022-11-19T09:57:40.792Z,52.64
2022-11-19T10:00:10.869Z,52.55
2022-11-19T10:02:38.916Z,52.14
2022-11-19T10:05:08.062Z,52.44
2022-11-19T10:07:44.855Z,52.21
2022-11-19T10:10:29.798Z,52.26
2022-11-19T10:13:13.042Z,52.25
2022-11-19T10:16:01.852Z,52.35
2022-11-19T10:18:41.408Z,52.15
2022-11-19T10:21:15.262Z,52.70
2022-11-19T10:23:51.112Z,52.44
2022-11-19T10:26:21.296Z,52.21
2022-11-19T10:28:56.219Z,52.19
2022-11-19T10:31:30.701Z,52.31
2022-11-19T10:34:06.021Z,52.40
2022-11-19T10:36:41.342Z,52.31
2022-11-19T10:39:16.499Z,51.91
2022-11-19T10:41:50.870Z,52.24
2022-11-19T10:44:41.420Z,52.23
2022-11-19T10:47:18.054Z,52.37
2022-11-19T10:49:46.535Z,52.43
2022-11-19T10:52:25.938Z,52.15
2022-11-19T10:54:57.831Z,52.13
2022-11-19T10:57:27.129Z,52.13
2022-11-19T10:59:57.121Z,52.17
2022-11-19T11:02:32.279Z,52.06
2022-11-19T11:05:04.174Z,51.85
2022-11-19T11:07:50.283Z,51.89
2022-11-19T11:10:31.706Z,52.08
2022-11-19T11:13:24.298Z,51.95
2022-11-19T11:15:54.812Z,51.98
2022-11-19T11:18:28.303Z,51.90
2022-11-19T11:20:57.323Z,51.97
2022-11-19T11:23:28.475Z,51.58
2022-11-19T11:26:04.999Z,51.14
2022-11-19T11:28:33.715Z,51.44
2022-11-19T11:31:04.799Z,51.50
2022-11-19T11:33:36.244Z,51.30
2022-11-19T11:36:08.104Z,51.03
2022-11-19T11:38:43.387Z,51.01
2022-11-19T11:42:17.811Z,51.17
2022-11-19T11:44:04.605Z,50.91
2022-11-19T11:46:43.789Z,50.73
2022-11-19T11:49:24.330Z,50.67
2022-11-19T11:52:02.759Z,50.40
2022-11-19T11:54:31.201Z,50.08
2022-11-19T11:57:15.959Z,49.74
2022-11-19T11:59:44.146Z,49.60
2022-11-19T12:02:30.168Z,49.31
2022-11-19T12:05:02.641Z,49.40
2022-11-19T12:07:44.457Z,49.27
2022-11-19T12:10:26.468Z,49.15
2022-11-19T12:13:09.120Z,48.78
2022-11-19T12:15:48.655Z,48.76
2022-11-19T12:18:30.423Z,48.16
2022-11-19T12:21:08.777Z,48.44
2022-11-19T12:24:05.982Z,48.49
2022-11-19T12:26:48.297Z,48.68
2022-11-19T12:29:26.130Z,48.75
2022-11-19T12:32:19.508Z,48.60
2022-11-19T12:35:15.508Z,48.60
2022-11-19T12:37:59.600Z,48.69
2022-11-19T12:40:41.991Z,48.68
2022-11-19T12:43:25.810Z,48.43
2022-11-19T12:46:00.962Z,48.66
2022-11-19T12:48:43.242Z,48.82
2022-11-19T12:51:26.389Z,48.67
2022-11-19T12:54:34.603Z,48.73
2022-11-19T12:57:29.951Z,48.80
2022-11-19T13:00:13.163Z,48.82
2022-11-19T13:02:49.708Z,48.75
2022-11-19T13:05:21.935Z,48.56
2022-11-19T13:07:59.363Z,48.70
2022-11-19T13:10:34.291Z,48.63
2022-11-19T13:13:04.421Z,48.74
2022-11-19T13:15:38.610Z,48.59
2022-11-19T13:18:12.866Z,48.49
2022-11-19T13:20:48.449Z,48.69
2022-11-19T13:23:27.712Z,48.57
2022-11-19T13:26:00.996Z,48.68
2022-11-19T13:28:39.343Z,48.66
2022-11-19T13:31:14.500Z,48.73
2022-11-19T13:33:51.245Z,48.82
2022-11-19T13:36:23.788Z,48.53
2022-11-19T13:38:57.331Z,48.17
2022-11-19T13:41:30.958Z,48.19
2022-11-19T13:44:17.541Z,48.17
2022-11-19T13:46:49.393Z,48.41
2022-11-19T13:49:21.842Z,48.40
2022-11-19T13:51:54.019Z,48.21
2022-11-19T13:54:29.498Z,48.26
2022-11-19T13:56:59.872Z,48.21
2022-11-19T13:59:33.982Z,48.09
2022-11-19T14:02:46.514Z,47.74
2022-11-19T14:05:42.101Z,48.06
2022-11-19T14:08:40.102Z,48.30
2022-11-19T14:11:23.093Z,47.78
2022-11-19T14:14:08.304Z,48.00
2022-11-19T14:17:04.050Z,47.92
2022-11-19T14:20:21.483Z,48.17
2022-11-19T14:23:14.213Z,47.93
2022-11-19T14:26:03.847Z,47.69
2022-11-19T14:28:51.373Z,47.90
2022-11-19T14:31:20.920Z,47.74
2022-11-19T14:34:00.216Z,48.08
2022-11-19T14:36:45.012Z,47.89
2022-11-19T14:39:23.007Z,47.88
2022-11-19T14:42:18.840Z,47.71
2022-11-19T14:45:21.012Z,47.70
2022-11-19T14:47:49.464Z,47.29
2022-11-19T14:50:27.912Z,47.93
2022-11-19T14:52:58.973Z,47.90
2022-11-19T14:55:29.646Z,48.42
2022-11-19T14:58:02.137Z,48.46
2022-11-19T15:00:35.043Z,48.41
2022-11-19T15:03:06.009Z,48.25
2022-11-19T15:05:36.996Z,47.98
2022-11-19T15:08:31.288Z,47.80
2022-11-19T15:11:08.001Z,47.72
2022-11-19T15:13:37.225Z,47.76
2022-11-19T15:16:16.310Z,47.61
2022-11-19T15:19:23.673Z,47.50
2022-11-19T15:22:10.853Z,47.59
2022-11-19T15:24:55.904Z,47.57
2022-11-19T15:27:35.816Z,47.72
2022-11-19T15:30:13.996Z,47.72
2022-11-19T15:32:59.757Z,47.85
2022-11-19T15:35:41.425Z,47.91
2022-11-19T15:38:20.602Z,47.82
2022-11-19T15:40:49.657Z,47.97
2022-11-19T15:43:25.575Z,48.10
2022-11-19T15:45:57.102Z,47.86
2022-11-19T15:48:35.184Z,48.08
2022-11-19T15:51:05.030Z,48.08
2022-11-19T15:53:33.781Z,48.11
2022-11-19T15:56:06.712Z,48.17
2022-11-19T15:58:38.510Z,48.08
2022-11-19T16:01:09.523Z,48.16
2022-11-19T16:03:40.825Z,48.43
2022-11-19T16:06:12.403Z,48.32
2022-11-19T16:08:41.009Z,48.36
2022-11-19T16:11:26.820Z,48.55
2022-11-19T16:14:13.361Z,48.84
2022-11-19T16:17:13.596Z,48.58
2022-11-19T16:19:43.413Z,48.62
2022-11-19T16:22:12.020Z,48.85
2022-11-19T16:24:57.406Z,48.75
2022-11-19T16:27:26.745Z,48.71
2022-11-19T16:29:55.457Z,48.94
2022-11-19T16:32:26.963Z,49.13
2022-11-19T16:35:10.566Z,49.20
2022-11-19T16:37:39.880Z,49.07
2022-11-19T16:40:15.588Z,49.27
2022-11-19T16:42:49.801Z,49.18
2022-11-19T16:45:21.740Z,49.28
2022-11-19T16:47:57.559Z,49.28
2022-11-19T16:50:33.328Z,49.54
2022-11-19T16:53:04.515Z,49.38
2022-11-19T16:55:53.975Z,49.39
2022-11-19T16:58:26.530Z,49.44
2022-11-19T17:00:59.824Z,49.65
2022-11-19T17:03:35.852Z,49.64
2022-11-19T17:06:07.464Z,49.80
2022-11-19T17:08:37.801Z,49.90
2022-11-19T17:11:41.147Z,49.66
2022-11-19T17:14:21.763Z,49.80
2022-11-19T17:16:52.015Z,49.97
2022-11-19T17:19:24.898Z,49.95
2022-11-19T17:22:00.111Z,50.02
2022-11-19T17:24:32.663Z,49.79
2022-11-19T17:27:01.142Z,50.06
2022-11-19T17:29:29.272Z,50.22
2022-11-19T17:32:00.836Z,50.15
2022-11-19T17:37:19.150Z,49.93
2022-11-19T17:39:51.416Z,50.15
2022-11-19T17:42:37.099Z,50.40
2022-11-19T17:45:10.617Z,50.25
2022-11-19T17:47:39.578Z,50.23
2022-11-19T17:50:23.859Z,50.57
2022-11-19T17:56:23.721Z,50.20
2022-11-19T17:59:17.834Z,50.27
2022-11-19T18:01:47.235Z,50.33
2022-11-19T18:04:30.736Z,50.28
2022-11-19T18:07:01.281Z,50.42
2022-11-19T18:09:36.214Z,50.80
2022-11-19T18:12:15.180Z,50.24
2022-11-19T18:14:45.649Z,50.80
2022-11-19T18:20:03.472Z,50.63
2022-11-19T18:25:37.458Z,50.53
2022-11-19T18:28:07.891Z,50.37
2022-11-19T18:30:51.057Z,50.55
2022-11-19T18:33:44.901Z,50.84
2022-11-19T18:36:13.582Z,50.49
2022-11-19T18:38:48.826Z,50.61
2022-11-19T18:41:25.342Z,50.38
2022-11-19T18:50:18.793Z,50.79
2022-11-19T19:01:52.636Z,50.31
2022-11-19T19:04:29.031Z,50.80
2022-11-19T19:07:07.227Z,50.59
2022-11-19T19:09:54.461Z,50.71
2022-11-19T19:16:17.658Z,50.73
2022-11-19T19:19:05.510Z,51.31
2022-11-19T19:24:56.744Z,50.95
2022-11-19T19:30:24.021Z,50.59
2022-11-19T19:32:53.923Z,50.71
2022-11-19T19:36:07.650Z,50.75
2022-11-19T19:41:38.676Z,50.70
2022-11-19T19:44:28.729Z,50.45
2022-11-19T19:50:20.031Z,50.77
2022-11-19T19:56:24.445Z,50.70
2022-11-19T19:58:59.208Z,50.81
2022-11-19T20:01:33.739Z,50.76
2022-11-19T20:04:04.753Z,50.65
2022-11-19T20:06:38.021Z,51.06
2022-11-19T20:09:21.036Z,50.77
2022-11-19T20:11:53.675Z,50.93
2022-11-19T20:14:22.988Z,50.94
2022-11-19T20:22:48.689Z,51.02
2022-11-19T20:25:20.586Z,50.96
2022-11-19T20:28:04.109Z,51.07
2022-11-19T20:30:32.269Z,51.16
2022-11-19T20:33:02.272Z,51.26
2022-11-19T20:35:30.739Z,51.24
2022-11-19T20:41:04.550Z,51.54
2022-11-19T20:43:53.076Z,51.47
2022-11-19T20:46:24.406Z,51.66
2022-11-19T20:49:04.866Z,51.53
2022-11-19T20:51:34.043Z,51.65
2022-11-19T20:54:02.452Z,51.60
2022-11-19T20:56:30.772Z,51.29
2022-11-19T20:59:00.945Z,51.61
2022-11-19T21:01:31.503Z,51.79
2022-11-19T21:04:00.716Z,51.88
2022-11-19T21:06:32.992Z,51.84
2022-11-19T21:09:01.448Z,51.99
2022-11-19T21:11:30.075Z,52.04
2022-11-19T21:20:19.669Z,51.98
2022-11-19T21:23:09.682Z,52.25
2022-11-19T21:25:44.476Z,52.29
2022-11-19T21:28:16.355Z,52.28
2022-11-19T21:37:24.629Z,52.33
2022-11-19T21:43:02.888Z,52.41
2022-11-19T21:45:48.907Z,52.46
2022-11-19T21:51:40.368Z,52.47
2022-11-19T22:03:11.726Z,52.51
2022-11-19T22:06:04.631Z,52.89
2022-11-19T22:08:37.495Z,52.54
2022-11-19T22:30:08.036Z,53.36
2022-11-19T22:38:23.753Z,52.87
2022-11-19T22:40:54.278Z,52.81
2022-11-19T22:43:25.458Z,52.92
2022-11-19T22:45:57.903Z,53.05
2022-11-19T22:48:43.637Z,52.98
2022-11-19T22:51:16.206Z,53.10
2022-11-19T22:57:10.680Z,53.30
2022-11-19T23:02:57.186Z,53.38
2022-11-19T23:12:42.304Z,53.26
2022-11-19T23:15:27.396Z,53.53
2022-11-19T23:18:20.533Z,53.62
2022-11-19T23:20:50.149Z,53.23
2022-11-19T23:32:04.038Z,53.88
2022-11-19T23:34:48.688Z,53.85
2022-11-19T23:37:24.832Z,53.92
2022-11-19T23:39:55.290Z,53.99
2022-11-19T23:42:28.294Z,54.13
2022-11-19T23:44:57.474Z,53.93
2022-11-19T23:47:27.075Z,53.67
2022-11-19T23:49:57.196Z,54.03
2022-11-19T23:52:51.022Z,54.17
2022-11-19T23:55:23.725Z,54.16
2022-11-19T23:57:56.747Z,54.14
